sensor_id;sensor_type;location;lat;lon;timestamp;temperature;humidity
25450;DHT22;13371;52.080;5.624;2023-05-14T00:00:00;16.20;92.70
25450;DHT22;13371;52.080;5.624;2023-05-14T00:02:26;16.10;92.80
25450;DHT22;13371;52.080;5.624;2023-05-14T00:04:52;16.20;93.10
25450;DHT22;13371;52.080;5.624;2023-05-14T00:07:17;15.90;93.50
25450;DHT22;13371;52.080;5.624;2023-05-14T00:09:43;15.90;93.60
25450;DHT22;13371;52.080;5.624;2023-05-14T00:12:09;15.90;93.80
25450;DHT22;13371;52.080;5.624;2023-05-14T00:14:34;15.70;94.00
25450;DHT22;13371;52.080;5.624;2023-05-14T00:17:00;15.70;94.20
25450;DHT22;13371;52.080;5.624;2023-05-14T00:19:26;15.60;94.60
25450;DHT22;13371;52.080;5.624;2023-05-14T00:21:51;15.60;94.70
25450;DHT22;13371;52.080;5.624;2023-05-14T00:24:17;15.60;94.70
25450;DHT22;13371;52.080;5.624;2023-05-14T00:26:43;15.80;94.60
25450;DHT22;13371;52.080;5.624;2023-05-14T00:29:08;15.90;94.60
25450;DHT22;13371;52.080;5.624;2023-05-14T00:31:34;15.80;94.40
25450;DHT22;13371;52.080;5.624;2023-05-14T00:34:00;15.80;94.40
25450;DHT22;13371;52.080;5.624;2023-05-14T00:36:26;15.80;94.30
25450;DHT22;13371;52.080;5.624;2023-05-14T00:38:51;15.80;94.50
25450;DHT22;13371;52.080;5.624;2023-05-14T00:41:17;15.70;94.80
25450;DHT22;13371;52.080;5.624;2023-05-14T00:43:43;15.70;94.80
25450;DHT22;13371;52.080;5.624;2023-05-14T00:46:08;15.90;94.70
25450;DHT22;13371;52.080;5.624;2023-05-14T00:48:36;16.00;94.60
25450;DHT22;13371;52.080;5.624;2023-05-14T00:51:02;16.00;94.40
25450;DHT22;13371;52.080;5.624;2023-05-14T00:53:28;15.80;94.60
25450;DHT22;13371;52.080;5.624;2023-05-14T00:55:53;15.60;94.90
25450;DHT22;13371;52.080;5.624;2023-05-14T00:58:19;15.40;95.30
25450;DHT22;13371;52.080;5.624;2023-05-14T01:00:46;15.70;95.20
25450;DHT22;13371;52.080;5.624;2023-05-14T01:03:11;15.50;95.30
25450;DHT22;13371;52.080;5.624;2023-05-14T01:05:45;15.20;95.90
25450;DHT22;13371;52.080;5.624;2023-05-14T01:09:12;15.20;96.60
25450;DHT22;13371;52.080;5.624;2023-05-14T01:11:19;15.30;96.40
25450;DHT22;13371;52.080;5.624;2023-05-14T01:16:20;15.10;96.20
25450;DHT22;13371;52.080;5.624;2023-05-14T01:18:49;15.20;96.20
25450;DHT22;13371;52.080;5.624;2023-05-14T01:21:35;15.10;96.30
25450;DHT22;13371;52.080;5.624;2023-05-14T01:24:02;15.00;96.40
25450;DHT22;13371;52.080;5.624;2023-05-14T01:26:28;15.20;96.10
25450;DHT22;13371;52.080;5.624;2023-05-14T01:29:10;15.40;96.20
25450;DHT22;13371;52.080;5.624;2023-05-14T01:31:39;15.50;95.90
25450;DHT22;13371;52.080;5.624;2023-05-14T01:34:08;15.50;95.70
25450;DHT22;13371;52.080;5.624;2023-05-14T01:36:36;15.60;95.60
25450;DHT22;13371;52.080;5.624;2023-05-14T01:39:03;15.70;95.40
25450;DHT22;13371;52.080;5.624;2023-05-14T01:41:29;15.60;95.60
25450;DHT22;13371;52.080;5.624;2023-05-14T01:43:56;15.40;95.30
25450;DHT22;13371;52.080;5.624;2023-05-14T01:46:22;15.40;95.70
25450;DHT22;13371;52.080;5.624;2023-05-14T01:48:49;15.40;95.70
25450;DHT22;13371;52.080;5.624;2023-05-14T01:51:15;15.20;96.00
25450;DHT22;13371;52.080;5.624;2023-05-14T01:53:41;15.10;96.20
25450;DHT22;13371;52.080;5.624;2023-05-14T01:56:06;14.70;97.00
25450;DHT22;13371;52.080;5.624;2023-05-14T01:58:32;14.80;97.40
25450;DHT22;13371;52.080;5.624;2023-05-14T02:00:57;15.00;96.90
25450;DHT22;13371;52.080;5.624;2023-05-14T02:03:23;15.10;96.80
25450;DHT22;13371;52.080;5.624;2023-05-14T02:05:49;15.20;96.40
25450;DHT22;13371;52.080;5.624;2023-05-14T02:08:15;14.90;96.60
25450;DHT22;13371;52.080;5.624;2023-05-14T02:10:40;15.10;96.50
25450;DHT22;13371;52.080;5.624;2023-05-14T02:13:06;14.90;96.60
25450;DHT22;13371;52.080;5.624;2023-05-14T02:15:33;15.10;96.50
25450;DHT22;13371;52.080;5.624;2023-05-14T02:17:59;14.80;96.60
25450;DHT22;13371;52.080;5.624;2023-05-14T02:20:25;14.80;97.10
25450;DHT22;13371;52.080;5.624;2023-05-14T02:22:50;14.90;97.30
25450;DHT22;13371;52.080;5.624;2023-05-14T02:25:16;14.90;96.60
25450;DHT22;13371;52.080;5.624;2023-05-14T02:27:41;15.00;96.50
25450;DHT22;13371;52.080;5.624;2023-05-14T02:30:08;15.00;96.50
25450;DHT22;13371;52.080;5.624;2023-05-14T02:32:33;14.80;96.50
25450;DHT22;13371;52.080;5.624;2023-05-14T02:34:59;14.70;96.90
25450;DHT22;13371;52.080;5.624;2023-05-14T02:37:25;14.50;97.60
25450;DHT22;13371;52.080;5.624;2023-05-14T02:39:50;14.60;97.50
25450;DHT22;13371;52.080;5.624;2023-05-14T02:42:17;14.50;97.60
25450;DHT22;13371;52.080;5.624;2023-05-14T02:44:43;14.90;97.30
25450;DHT22;13371;52.080;5.624;2023-05-14T02:47:08;15.00;96.40
25450;DHT22;13371;52.080;5.624;2023-05-14T02:49:34;14.70;97.00
25450;DHT22;13371;52.080;5.624;2023-05-14T02:52:00;14.80;97.00
25450;DHT22;13371;52.080;5.624;2023-05-14T02:54:25;14.70;97.40
25450;DHT22;13371;52.080;5.624;2023-05-14T02:56:51;14.30;97.30
25450;DHT22;13371;52.080;5.624;2023-05-14T02:59:17;14.30;97.90
25450;DHT22;13371;52.080;5.624;2023-05-14T03:01:42;14.00;98.00
25450;DHT22;13371;52.080;5.624;2023-05-14T03:04:08;14.20;98.10
25450;DHT22;13371;52.080;5.624;2023-05-14T03:06:34;14.20;97.80
25450;DHT22;13371;52.080;5.624;2023-05-14T03:08:59;14.40;97.80
25450;DHT22;13371;52.080;5.624;2023-05-14T03:11:25;14.60;97.60
25450;DHT22;13371;52.080;5.624;2023-05-14T03:13:51;14.70;97.30
25450;DHT22;13371;52.080;5.624;2023-05-14T03:16:16;14.90;97.00
25450;DHT22;13371;52.080;5.624;2023-05-14T03:18:42;15.00;97.30
25450;DHT22;13371;52.080;5.624;2023-05-14T03:21:07;15.10;96.70
25450;DHT22;13371;52.080;5.624;2023-05-14T03:23:33;15.10;96.30
25450;DHT22;13371;52.080;5.624;2023-05-14T03:26:00;15.10;96.50
25450;DHT22;13371;52.080;5.624;2023-05-14T03:28:26;15.30;96.20
25450;DHT22;13371;52.080;5.624;2023-05-14T03:30:52;15.40;96.00
25450;DHT22;13371;52.080;5.624;2023-05-14T03:33:17;15.40;96.00
25450;DHT22;13371;52.080;5.624;2023-05-14T03:35:43;15.40;96.00
25450;DHT22;13371;52.080;5.624;2023-05-14T03:38:09;15.30;96.00
25450;DHT22;13371;52.080;5.624;2023-05-14T03:40:34;15.30;96.00
25450;DHT22;13371;52.080;5.624;2023-05-14T03:43:00;15.20;96.00
25450;DHT22;13371;52.080;5.624;2023-05-14T03:45:26;15.10;96.30
25450;DHT22;13371;52.080;5.624;2023-05-14T03:47:53;15.20;96.40
25450;DHT22;13371;52.080;5.624;2023-05-14T03:50:18;15.10;96.30
25450;DHT22;13371;52.080;5.624;2023-05-14T03:52:44;15.20;96.40
25450;DHT22;13371;52.080;5.624;2023-05-14T03:55:10;15.10;96.60
25450;DHT22;13371;52.080;5.624;2023-05-14T03:57:36;15.00;96.80
25450;DHT22;13371;52.080;5.624;2023-05-14T04:00:06;14.80;97.10
25450;DHT22;13371;52.080;5.624;2023-05-14T04:02:32;14.80;97.40
25450;DHT22;13371;52.080;5.624;2023-05-14T04:04:57;14.60;97.60
25450;DHT22;13371;52.080;5.624;2023-05-14T04:07:23;14.60;98.10
25450;DHT22;13371;52.080;5.624;2023-05-14T04:09:49;14.60;97.80
25450;DHT22;13371;52.080;5.624;2023-05-14T04:12:14;14.60;98.00
25450;DHT22;13371;52.080;5.624;2023-05-14T04:14:40;14.60;97.90
25450;DHT22;13371;52.080;5.624;2023-05-14T04:17:08;14.70;97.90
25450;DHT22;13371;52.080;5.624;2023-05-14T04:19:34;14.70;98.00
25450;DHT22;13371;52.080;5.624;2023-05-14T04:21:59;14.40;98.00
25450;DHT22;13371;52.080;5.624;2023-05-14T04:24:25;14.40;98.40
25450;DHT22;13371;52.080;5.624;2023-05-14T04:26:50;14.50;98.10
25450;DHT22;13371;52.080;5.624;2023-05-14T04:29:16;14.50;98.00
25450;DHT22;13371;52.080;5.624;2023-05-14T04:31:43;14.50;97.90
25450;DHT22;13371;52.080;5.624;2023-05-14T04:34:08;14.80;98.00
25450;DHT22;13371;52.080;5.624;2023-05-14T04:36:34;14.80;97.60
25450;DHT22;13371;52.080;5.624;2023-05-14T04:39:00;14.80;97.40
25450;DHT22;13371;52.080;5.624;2023-05-14T04:41:25;14.40;97.80
25450;DHT22;13371;52.080;5.624;2023-05-14T04:43:55;14.40;98.30
25450;DHT22;13371;52.080;5.624;2023-05-14T04:46:21;14.40;98.60
25450;DHT22;13371;52.080;5.624;2023-05-14T04:48:47;14.10;98.70
25450;DHT22;13371;52.080;5.624;2023-05-14T04:51:13;14.20;98.80
25450;DHT22;13371;52.080;5.624;2023-05-14T04:53:39;14.40;98.90
25450;DHT22;13371;52.080;5.624;2023-05-14T04:56:04;14.40;98.60
25450;DHT22;13371;52.080;5.624;2023-05-14T04:58:30;14.20;98.70
25450;DHT22;13371;52.080;5.624;2023-05-14T05:00:58;14.30;98.90
25450;DHT22;13371;52.080;5.624;2023-05-14T05:03:23;14.10;98.90
25450;DHT22;13371;52.080;5.624;2023-05-14T05:05:49;14.20;98.90
25450;DHT22;13371;52.080;5.624;2023-05-14T05:08:16;14.10;99.50
25450;DHT22;13371;52.080;5.624;2023-05-14T05:10:41;14.30;99.80
25450;DHT22;13371;52.080;5.624;2023-05-14T05:13:07;14.40;99.50
25450;DHT22;13371;52.080;5.624;2023-05-14T05:15:33;14.00;99.40
25450;DHT22;13371;52.080;5.624;2023-05-14T05:17:58;14.20;99.80
25450;DHT22;13371;52.080;5.624;2023-05-14T05:20:24;14.30;99.90
25450;DHT22;13371;52.080;5.624;2023-05-14T05:22:52;14.10;99.90
25450;DHT22;13371;52.080;5.624;2023-05-14T05:25:18;14.20;99.90
25450;DHT22;13371;52.080;5.624;2023-05-14T05:27:43;14.10;99.90
25450;DHT22;13371;52.080;5.624;2023-05-14T05:30:10;14.00;99.90
25450;DHT22;13371;52.080;5.624;2023-05-14T05:32:36;13.90;99.90
25450;DHT22;13371;52.080;5.624;2023-05-14T05:35:02;13.90;99.90
25450;DHT22;13371;52.080;5.624;2023-05-14T05:37:27;13.80;99.90
25450;DHT22;13371;52.080;5.624;2023-05-14T05:39:53;13.90;99.90
25450;DHT22;13371;52.080;5.624;2023-05-14T05:42:18;14.10;99.90
25450;DHT22;13371;52.080;5.624;2023-05-14T05:44:44;13.90;99.90
25450;DHT22;13371;52.080;5.624;2023-05-14T05:47:10;14.10;99.90
25450;DHT22;13371;52.080;5.624;2023-05-14T05:49:35;14.10;99.90
25450;DHT22;13371;52.080;5.624;2023-05-14T05:52:02;14.00;99.90
25450;DHT22;13371;52.080;5.624;2023-05-14T05:54:29;14.20;99.90
25450;DHT22;13371;52.080;5.624;2023-05-14T05:56:56;14.30;99.90
25450;DHT22;13371;52.080;5.624;2023-05-14T05:59:23;14.00;99.90
25450;DHT22;13371;52.080;5.624;2023-05-14T06:01:49;14.20;99.90
25450;DHT22;13371;52.080;5.624;2023-05-14T06:04:14;14.50;99.90
25450;DHT22;13371;52.080;5.624;2023-05-14T06:06:40;14.40;99.90
25450;DHT22;13371;52.080;5.624;2023-05-14T06:09:06;14.70;99.90
25450;DHT22;13371;52.080;5.624;2023-05-14T06:11:35;14.80;99.90
25450;DHT22;13371;52.080;5.624;2023-05-14T06:14:01;15.10;99.90
25450;DHT22;13371;52.080;5.624;2023-05-14T06:16:26;15.40;99.90
25450;DHT22;13371;52.080;5.624;2023-05-14T06:18:52;15.20;99.90
25450;DHT22;13371;52.080;5.624;2023-05-14T06:21:19;15.00;99.90
25450;DHT22;13371;52.080;5.624;2023-05-14T06:23:45;15.10;99.90
25450;DHT22;13371;52.080;5.624;2023-05-14T06:26:11;15.40;99.90
25450;DHT22;13371;52.080;5.624;2023-05-14T06:28:39;15.40;99.90
25450;DHT22;13371;52.080;5.624;2023-05-14T06:31:05;15.40;99.60
25450;DHT22;13371;52.080;5.624;2023-05-14T06:33:30;15.40;99.70
25450;DHT22;13371;52.080;5.624;2023-05-14T06:35:58;15.60;99.50
25450;DHT22;13371;52.080;5.624;2023-05-14T06:38:23;15.60;99.90
25450;DHT22;13371;52.080;5.624;2023-05-14T06:40:50;16.00;99.50
25450;DHT22;13371;52.080;5.624;2023-05-14T06:43:17;16.10;98.70
25450;DHT22;13371;52.080;5.624;2023-05-14T06:45:42;16.10;98.70
25450;DHT22;13371;52.080;5.624;2023-05-14T06:48:08;16.30;98.40
25450;DHT22;13371;52.080;5.624;2023-05-14T06:50:34;16.10;98.40
25450;DHT22;13371;52.080;5.624;2023-05-14T06:53:00;16.20;98.40
25450;DHT22;13371;52.080;5.624;2023-05-14T06:55:25;15.90;99.00
25450;DHT22;13371;52.080;5.624;2023-05-14T06:57:51;16.20;98.90
25450;DHT22;13371;52.080;5.624;2023-05-14T07:00:17;16.30;98.60
25450;DHT22;13371;52.080;5.624;2023-05-14T07:02:43;16.10;98.30
25450;DHT22;13371;52.080;5.624;2023-05-14T07:05:09;16.20;98.30
25450;DHT22;13371;52.080;5.624;2023-05-14T07:07:35;16.30;98.50
25450;DHT22;13371;52.080;5.624;2023-05-14T07:10:00;16.40;98.10
25450;DHT22;13371;52.080;5.624;2023-05-14T07:12:26;16.70;97.70
25450;DHT22;13371;52.080;5.624;2023-05-14T07:14:51;16.50;98.10
25450;DHT22;13371;52.080;5.624;2023-05-14T07:17:17;16.80;98.00
25450;DHT22;13371;52.080;5.624;2023-05-14T07:19:43;16.90;97.40
25450;DHT22;13371;52.080;5.624;2023-05-14T07:22:09;16.80;97.60
25450;DHT22;13371;52.080;5.624;2023-05-14T07:24:34;17.00;97.40
25450;DHT22;13371;52.080;5.624;2023-05-14T07:27:00;17.30;97.80
25450;DHT22;13371;52.080;5.624;2023-05-14T07:29:26;17.50;97.70
25450;DHT22;13371;52.080;5.624;2023-05-14T07:31:52;17.40;96.70
25450;DHT22;13371;52.080;5.624;2023-05-14T07:34:18;17.50;97.20
25450;DHT22;13371;52.080;5.624;2023-05-14T07:36:44;17.70;97.20
25450;DHT22;13371;52.080;5.624;2023-05-14T07:39:10;17.90;96.60
25450;DHT22;13371;52.080;5.624;2023-05-14T07:41:36;17.70;96.80
25450;DHT22;13371;52.080;5.624;2023-05-14T07:44:02;18.00;97.10
25450;DHT22;13371;52.080;5.624;2023-05-14T07:46:28;18.10;95.60
25450;DHT22;13371;52.080;5.624;2023-05-14T07:48:53;18.20;96.00
25450;DHT22;13371;52.080;5.624;2023-05-14T07:51:19;18.30;96.30
25450;DHT22;13371;52.080;5.624;2023-05-14T07:53:45;18.20;95.50
25450;DHT22;13371;52.080;5.624;2023-05-14T07:56:13;18.10;96.10
25450;DHT22;13371;52.080;5.624;2023-05-14T07:58:39;18.30;94.60
25450;DHT22;13371;52.080;5.624;2023-05-14T08:01:05;18.50;94.90
25450;DHT22;13371;52.080;5.624;2023-05-14T08:03:33;18.80;95.60
25450;DHT22;13371;52.080;5.624;2023-05-14T08:05:59;19.10;94.70
25450;DHT22;13371;52.080;5.624;2023-05-14T08:08:25;19.10;93.90
25450;DHT22;13371;52.080;5.624;2023-05-14T08:10:51;18.70;93.60
25450;DHT22;13371;52.080;5.624;2023-05-14T08:13:17;18.90;94.70
25450;DHT22;13371;52.080;5.624;2023-05-14T08:15:42;19.30;93.90
25450;DHT22;13371;52.080;5.624;2023-05-14T08:18:08;19.70;94.00
25450;DHT22;13371;52.080;5.624;2023-05-14T08:20:33;19.90;93.60
25450;DHT22;13371;52.080;5.624;2023-05-14T08:22:59;20.00;93.20
25450;DHT22;13371;52.080;5.624;2023-05-14T08:25:25;20.40;93.70
25450;DHT22;13371;52.080;5.624;2023-05-14T08:27:51;20.50;92.10
25450;DHT22;13371;52.080;5.624;2023-05-14T08:30:18;20.40;92.40
25450;DHT22;13371;52.080;5.624;2023-05-14T08:32:44;20.30;92.20
25450;DHT22;13371;52.080;5.624;2023-05-14T08:35:10;20.30;92.50
25450;DHT22;13371;52.080;5.624;2023-05-14T08:37:35;20.30;92.30
25450;DHT22;13371;52.080;5.624;2023-05-14T08:40:01;20.50;92.30
25450;DHT22;13371;52.080;5.624;2023-05-14T08:42:28;20.70;92.40
25450;DHT22;13371;52.080;5.624;2023-05-14T08:45:00;20.80;91.90
25450;DHT22;13371;52.080;5.624;2023-05-14T08:47:29;20.90;91.60
25450;DHT22;13371;52.080;5.624;2023-05-14T08:50:05;21.00;92.30
25450;DHT22;13371;52.080;5.624;2023-05-14T08:52:32;20.90;91.90
25450;DHT22;13371;52.080;5.624;2023-05-14T08:55:01;20.60;91.50
25450;DHT22;13371;52.080;5.624;2023-05-14T08:57:29;20.60;92.00
25450;DHT22;13371;52.080;5.624;2023-05-14T08:59:55;21.00;91.60
25450;DHT22;13371;52.080;5.624;2023-05-14T09:02:45;21.10;90.30
25450;DHT22;13371;52.080;5.624;2023-05-14T09:05:29;21.30;91.00
25450;DHT22;13371;52.080;5.624;2023-05-14T09:07:58;21.40;90.80
25450;DHT22;13371;52.080;5.624;2023-05-14T09:10:23;21.50;89.60
25450;DHT22;13371;52.080;5.624;2023-05-14T09:12:49;21.60;90.40
25450;DHT22;13371;52.080;5.624;2023-05-14T09:15:16;21.50;88.70
25450;DHT22;13371;52.080;5.624;2023-05-14T09:17:42;21.80;89.40
25450;DHT22;13371;52.080;5.624;2023-05-14T09:20:10;21.80;89.30
25450;DHT22;13371;52.080;5.624;2023-05-14T09:22:38;21.80;89.70
25450;DHT22;13371;52.080;5.624;2023-05-14T09:25:08;21.90;87.90
25450;DHT22;13371;52.080;5.624;2023-05-14T09:27:35;21.70;87.60
25450;DHT22;13371;52.080;5.624;2023-05-14T09:30:11;21.10;87.70
25450;DHT22;13371;52.080;5.624;2023-05-14T09:32:39;21.10;90.60
25450;DHT22;13371;52.080;5.624;2023-05-14T09:37:45;21.50;87.90
25450;DHT22;13371;52.080;5.624;2023-05-14T09:40:11;21.50;86.90
25450;DHT22;13371;52.080;5.624;2023-05-14T09:42:37;21.90;86.80
25450;DHT22;13371;52.080;5.624;2023-05-14T09:45:03;21.90;87.30
25450;DHT22;13371;52.080;5.624;2023-05-14T09:47:29;22.20;84.50
25450;DHT22;13371;52.080;5.624;2023-05-14T09:49:56;22.50;85.60
25450;DHT22;13371;52.080;5.624;2023-05-14T09:52:24;22.80;86.90
25450;DHT22;13371;52.080;5.624;2023-05-14T09:54:53;23.30;86.80
25450;DHT22;13371;52.080;5.624;2023-05-14T09:57:19;23.60;84.60
25450;DHT22;13371;52.080;5.624;2023-05-14T09:59:45;24.00;83.50
25450;DHT22;13371;52.080;5.624;2023-05-14T10:04:52;24.20;82.20
25450;DHT22;13371;52.080;5.624;2023-05-14T10:07:26;24.10;81.90
25450;DHT22;13371;52.080;5.624;2023-05-14T10:09:56;24.10;81.60
25450;DHT22;13371;52.080;5.624;2023-05-14T10:12:31;24.40;82.10
25450;DHT22;13371;52.080;5.624;2023-05-14T10:15:00;24.70;80.10
25450;DHT22;13371;52.080;5.624;2023-05-14T10:17:30;24.90;79.50
25450;DHT22;13371;52.080;5.624;2023-05-14T10:19:57;24.60;78.00
25450;DHT22;13371;52.080;5.624;2023-05-14T10:22:26;23.70;78.60
25450;DHT22;13371;52.080;5.624;2023-05-14T10:24:58;23.80;78.40
25450;DHT22;13371;52.080;5.624;2023-05-14T10:27:24;24.30;81.70
25450;DHT22;13371;52.080;5.624;2023-05-14T10:29:52;24.50;79.00
25450;DHT22;13371;52.080;5.624;2023-05-14T10:32:24;24.00;80.70
25450;DHT22;13371;52.080;5.624;2023-05-14T10:35:18;24.20;80.10
25450;DHT22;13371;52.080;5.624;2023-05-14T10:37:46;24.30;80.60
25450;DHT22;13371;52.080;5.624;2023-05-14T10:40:15;24.30;78.00
25450;DHT22;13371;52.080;5.624;2023-05-14T10:42:42;24.10;77.60
25450;DHT22;13371;52.080;5.624;2023-05-14T10:45:11;24.30;79.30
25450;DHT22;13371;52.080;5.624;2023-05-14T10:47:38;24.60;79.20
25450;DHT22;13371;52.080;5.624;2023-05-14T10:50:06;25.10;79.50
25450;DHT22;13371;52.080;5.624;2023-05-14T10:52:32;25.60;78.10
25450;DHT22;13371;52.080;5.624;2023-05-14T10:55:04;25.90;77.50
25450;DHT22;13371;52.080;5.624;2023-05-14T10:57:36;25.70;74.00
25450;DHT22;13371;52.080;5.624;2023-05-14T11:00:03;25.10;76.40
25450;DHT22;13371;52.080;5.624;2023-05-14T11:02:36;25.50;77.80
25450;DHT22;13371;52.080;5.624;2023-05-14T11:05:11;25.60;74.60
25450;DHT22;13371;52.080;5.624;2023-05-14T11:08:16;25.90;74.80
25450;DHT22;13371;52.080;5.624;2023-05-14T11:10:43;26.00;74.80
25450;DHT22;13371;52.080;5.624;2023-05-14T11:13:10;25.80;72.90
25450;DHT22;13371;52.080;5.624;2023-05-14T11:15:41;26.10;75.50
25450;DHT22;13371;52.080;5.624;2023-05-14T11:18:11;26.30;73.20
25450;DHT22;13371;52.080;5.624;2023-05-14T11:20:37;26.40;75.10
25450;DHT22;13371;52.080;5.624;2023-05-14T11:23:03;26.50;72.50
25450;DHT22;13371;52.080;5.624;2023-05-14T11:25:28;26.30;71.10
25450;DHT22;13371;52.080;5.624;2023-05-14T11:27:54;26.10;72.00
25450;DHT22;13371;52.080;5.624;2023-05-14T11:30:23;26.20;72.80
25450;DHT22;13371;52.080;5.624;2023-05-14T11:32:49;26.20;72.60
25450;DHT22;13371;52.080;5.624;2023-05-14T11:35:16;26.40;71.90
25450;DHT22;13371;52.080;5.624;2023-05-14T11:37:42;26.30;67.00
25450;DHT22;13371;52.080;5.624;2023-05-14T11:40:14;26.70;69.10
25450;DHT22;13371;52.080;5.624;2023-05-14T11:42:41;26.40;69.10
25450;DHT22;13371;52.080;5.624;2023-05-14T11:45:09;26.70;70.30
25450;DHT22;13371;52.080;5.624;2023-05-14T11:47:36;26.50;67.50
25450;DHT22;13371;52.080;5.624;2023-05-14T11:50:02;26.90;68.10
25450;DHT22;13371;52.080;5.624;2023-05-14T11:52:27;26.70;67.80
25450;DHT22;13371;52.080;5.624;2023-05-14T11:54:53;26.60;67.50
25450;DHT22;13371;52.080;5.624;2023-05-14T11:57:20;26.30;65.80
25450;DHT22;13371;52.080;5.624;2023-05-14T11:59:47;25.90;68.70
25450;DHT22;13371;52.080;5.624;2023-05-14T12:02:16;25.80;65.30
25450;DHT22;13371;52.080;5.624;2023-05-14T12:04:42;25.90;64.60
25450;DHT22;13371;52.080;5.624;2023-05-14T12:07:13;25.90;68.90
25450;DHT22;13371;52.080;5.624;2023-05-14T12:09:42;26.30;68.60
25450;DHT22;13371;52.080;5.624;2023-05-14T12:12:13;26.40;68.10
25450;DHT22;13371;52.080;5.624;2023-05-14T12:14:40;26.30;69.10
25450;DHT22;13371;52.080;5.624;2023-05-14T12:17:16;26.50;69.00
25450;DHT22;13371;52.080;5.624;2023-05-14T12:19:43;26.60;70.20
25450;DHT22;13371;52.080;5.624;2023-05-14T12:22:10;26.60;71.00
25450;DHT22;13371;52.080;5.624;2023-05-14T12:24:36;26.70;69.20
25450;DHT22;13371;52.080;5.624;2023-05-14T12:27:03;26.70;70.90
25450;DHT22;13371;52.080;5.624;2023-05-14T12:29:29;26.50;69.60
25450;DHT22;13371;52.080;5.624;2023-05-14T12:31:56;26.50;69.50
25450;DHT22;13371;52.080;5.624;2023-05-14T12:34:28;26.80;71.10
25450;DHT22;13371;52.080;5.624;2023-05-14T12:36:54;26.90;70.00
25450;DHT22;13371;52.080;5.624;2023-05-14T12:39:19;27.00;68.10
25450;DHT22;13371;52.080;5.624;2023-05-14T12:41:45;26.50;69.40
25450;DHT22;13371;52.080;5.624;2023-05-14T12:44:11;26.60;69.50
25450;DHT22;13371;52.080;5.624;2023-05-14T12:46:36;26.80;67.10
25450;DHT22;13371;52.080;5.624;2023-05-14T12:49:02;26.70;67.50
25450;DHT22;13371;52.080;5.624;2023-05-14T12:51:28;26.70;67.70
25450;DHT22;13371;52.080;5.624;2023-05-14T12:53:59;26.60;68.40
25450;DHT22;13371;52.080;5.624;2023-05-14T12:56:25;25.80;66.20
25450;DHT22;13371;52.080;5.624;2023-05-14T12:58:54;26.10;68.60
25450;DHT22;13371;52.080;5.624;2023-05-14T13:01:23;26.30;68.60
25450;DHT22;13371;52.080;5.624;2023-05-14T13:03:49;26.40;70.30
25450;DHT22;13371;52.080;5.624;2023-05-14T13:06:15;26.50;68.40
25450;DHT22;13371;52.080;5.624;2023-05-14T13:08:40;26.80;68.30
25450;DHT22;13371;52.080;5.624;2023-05-14T13:11:06;26.80;68.70
25450;DHT22;13371;52.080;5.624;2023-05-14T13:13:32;26.80;68.70
25450;DHT22;13371;52.080;5.624;2023-05-14T13:15:58;26.60;67.50
25450;DHT22;13371;52.080;5.624;2023-05-14T13:18:24;26.30;68.50
25450;DHT22;13371;52.080;5.624;2023-05-14T13:20:51;26.40;69.80
25450;DHT22;13371;52.080;5.624;2023-05-14T13:23:17;26.70;70.30
25450;DHT22;13371;52.080;5.624;2023-05-14T13:25:42;26.70;70.90
25450;DHT22;13371;52.080;5.624;2023-05-14T13:28:08;26.80;70.90
25450;DHT22;13371;52.080;5.624;2023-05-14T13:30:34;26.80;68.70
25450;DHT22;13371;52.080;5.624;2023-05-14T13:32:59;26.70;70.60
25450;DHT22;13371;52.080;5.624;2023-05-14T13:35:28;26.40;71.10
25450;DHT22;13371;52.080;5.624;2023-05-14T13:37:53;26.30;71.80
25450;DHT22;13371;52.080;5.624;2023-05-14T13:40:19;26.40;71.00
25450;DHT22;13371;52.080;5.624;2023-05-14T13:42:45;26.30;72.00
25450;DHT22;13371;52.080;5.624;2023-05-14T13:45:11;26.20;71.20
25450;DHT22;13371;52.080;5.624;2023-05-14T13:47:37;26.30;73.00
25450;DHT22;13371;52.080;5.624;2023-05-14T13:50:03;26.10;70.90
25450;DHT22;13371;52.080;5.624;2023-05-14T13:52:29;26.20;72.70
25450;DHT22;13371;52.080;5.624;2023-05-14T13:54:54;26.30;70.80
25450;DHT22;13371;52.080;5.624;2023-05-14T13:57:20;26.50;72.40
25450;DHT22;13371;52.080;5.624;2023-05-14T13:59:47;26.50;72.40
25450;DHT22;13371;52.080;5.624;2023-05-14T14:02:13;26.40;70.60
25450;DHT22;13371;52.080;5.624;2023-05-14T14:04:39;26.30;70.20
25450;DHT22;13371;52.080;5.624;2023-05-14T14:07:04;26.20;69.80
25450;DHT22;13371;52.080;5.624;2023-05-14T14:09:30;26.20;69.90
25450;DHT22;13371;52.080;5.624;2023-05-14T14:12:02;25.60;69.70
25450;DHT22;13371;52.080;5.624;2023-05-14T14:14:28;25.40;71.50
25450;DHT22;13371;52.080;5.624;2023-05-14T14:16:53;25.50;69.10
25450;DHT22;13371;52.080;5.624;2023-05-14T14:19:19;25.40;72.30
25450;DHT22;13371;52.080;5.624;2023-05-14T14:21:45;25.40;71.70
25450;DHT22;13371;52.080;5.624;2023-05-14T14:24:10;25.40;70.70
25450;DHT22;13371;52.080;5.624;2023-05-14T14:26:36;25.40;69.40
25450;DHT22;13371;52.080;5.624;2023-05-14T14:29:02;25.40;70.70
25450;DHT22;13371;52.080;5.624;2023-05-14T14:31:28;25.50;71.60
25450;DHT22;13371;52.080;5.624;2023-05-14T14:33:53;25.50;67.80
25450;DHT22;13371;52.080;5.624;2023-05-14T14:36:19;25.40;66.80
25450;DHT22;13371;52.080;5.624;2023-05-14T14:38:44;25.30;67.60
25450;DHT22;13371;52.080;5.624;2023-05-14T14:41:10;25.10;69.00
25450;DHT22;13371;52.080;5.624;2023-05-14T14:43:37;24.90;72.00
25450;DHT22;13371;52.080;5.624;2023-05-14T14:46:02;24.80;72.30
25450;DHT22;13371;52.080;5.624;2023-05-14T14:48:33;24.70;72.90
25450;DHT22;13371;52.080;5.624;2023-05-14T14:51:02;24.80;71.60
25450;DHT22;13371;52.080;5.624;2023-05-14T14:53:28;24.70;72.50
25450;DHT22;13371;52.080;5.624;2023-05-14T14:55:54;24.90;73.90
25450;DHT22;13371;52.080;5.624;2023-05-14T14:58:20;25.00;71.90
25450;DHT22;13371;52.080;5.624;2023-05-14T15:00:47;24.80;73.30
25450;DHT22;13371;52.080;5.624;2023-05-14T15:03:13;24.70;75.20
25450;DHT22;13371;52.080;5.624;2023-05-14T15:05:40;24.50;75.70
25450;DHT22;13371;52.080;5.624;2023-05-14T15:08:05;24.40;74.00
25450;DHT22;13371;52.080;5.624;2023-05-14T15:10:31;24.40;76.20
25450;DHT22;13371;52.080;5.624;2023-05-14T15:12:57;24.40;74.00
25450;DHT22;13371;52.080;5.624;2023-05-14T15:15:24;24.40;73.20
25450;DHT22;13371;52.080;5.624;2023-05-14T15:17:50;24.30;74.60
25450;DHT22;13371;52.080;5.624;2023-05-14T15:20:16;24.50;76.30
25450;DHT22;13371;52.080;5.624;2023-05-14T15:22:42;24.60;73.80
25450;DHT22;13371;52.080;5.624;2023-05-14T15:25:08;24.40;75.70
25450;DHT22;13371;52.080;5.624;2023-05-14T15:27:34;24.40;76.00
25450;DHT22;13371;52.080;5.624;2023-05-14T15:29:59;24.50;75.30
25450;DHT22;13371;52.080;5.624;2023-05-14T15:32:25;24.50;76.20
25450;DHT22;13371;52.080;5.624;2023-05-14T15:34:53;24.70;77.30